createdAt,value
2023-03-03T00:01:42.466Z,84.26
2023-03-03T00:04:09.539Z,84.27
2023-03-03T00:06:36.360Z,84.53
2023-03-03T00:09:03.198Z,84.24
2023-03-03T00:11:29.961Z,84.23
2023-03-03T00:13:57.395Z,84.22
2023-03-03T00:16:37.740Z,84.61
2023-03-03T00:19:14.066Z,84.44
2023-03-03T00:21:42.612Z,84.42
2023-03-03T00:24:24.304Z,84.29
2023-03-03T00:26:56.130Z,84.29
2023-03-03T00:29:31.017Z,84.51
2023-03-03T00:32:22.289Z,84.64
2023-03-03T00:34:50.256Z,84.53
2023-03-03T00:37:29.235Z,84.39
2023-03-03T00:40:03.887Z,84.50
2023-03-03T00:42:33.838Z,84.37
2023-03-03T00:45:03.985Z,84.72
2023-03-03T00:47:41.330Z,84.64
2023-03-03T00:50:08.137Z,84.81
2023-03-03T00:52:40.517Z,84.58
2023-03-03T00:55:08.622Z,84.71
2023-03-03T00:57:35.446Z,84.84
2023-03-03T01:00:04.726Z,85.00
2023-03-03T01:02:32.407Z,85.00
2023-03-03T01:05:00.092Z,84.99
2023-03-03T01:07:27.310Z,84.92
2023-03-03T01:09:55.132Z,85.03
2023-03-03T01:12:21.961Z,85.25
2023-03-03T01:14:49.464Z,85.32
2023-03-03T01:17:16.335Z,85.12
2023-03-03T01:19:43.194Z,85.31
2023-03-03T01:22:10.024Z,85.33
2023-03-03T01:24:36.833Z,85.46
2023-03-03T01:27:04.591Z,85.18
2023-03-03T01:29:31.349Z,85.21
2023-03-03T01:31:58.221Z,85.37
2023-03-03T01:34:25.547Z,85.42
2023-03-03T01:36:52.326Z,85.56
2023-03-03T01:39:19.237Z,85.42
2023-03-03T01:41:46.074Z,85.31
2023-03-03T01:44:15.642Z,85.32
2023-03-03T01:46:52.779Z,85.35
2023-03-03T01:49:27.404Z,85.64
2023-03-03T01:51:56.644Z,85.56
2023-03-03T01:54:29.949Z,85.49
2023-03-03T01:57:00.616Z,85.59
2023-03-03T01:59:28.816Z,85.78
2023-03-03T02:01:55.643Z,85.68
2023-03-03T02:04:22.695Z,85.84
2023-03-03T02:06:55.169Z,85.67
2023-03-03T02:09:40.050Z,85.97
2023-03-03T02:12:08.674Z,85.66
2023-03-03T02:14:35.464Z,85.85
2023-03-03T02:17:02.312Z,86.01
2023-03-03T02:19:52.172Z,85.82
2023-03-03T02:22:23.998Z,85.94
2023-03-03T02:24:59.223Z,85.75
2023-03-03T02:27:27.365Z,85.98
2023-03-03T02:29:54.445Z,86.07
2023-03-03T02:32:21.308Z,86.22
2023-03-03T02:34:50.584Z,86.01
2023-03-03T02:37:18.332Z,86.34
2023-03-03T02:39:45.533Z,86.46
2023-03-03T02:42:24.513Z,86.35
2023-03-03T02:44:54.624Z,86.18
2023-03-03T02:47:21.419Z,86.05
2023-03-03T02:49:48.374Z,86.28
2023-03-03T02:52:18.197Z,86.31
2023-03-03T02:54:46.882Z,86.61
2023-03-03T02:57:13.837Z,86.75
2023-03-03T02:59:40.590Z,86.69
2023-03-03T03:02:13.360Z,86.90
2023-03-03T03:04:40.962Z,86.86
2023-03-03T03:07:09.640Z,87.00
2023-03-03T03:09:37.847Z,86.98
2023-03-03T03:12:05.462Z,86.97
2023-03-03T03:14:34.506Z,86.93
2023-03-03T03:17:01.696Z,86.93
2023-03-03T03:19:29.444Z,86.98
2023-03-03T03:21:59.364Z,86.90
2023-03-03T03:24:26.576Z,87.04
2023-03-03T03:26:58.031Z,87.01
2023-03-03T03:29:26.755Z,87.16
2023-03-03T03:31:54.070Z,87.01
2023-03-03T03:34:21.198Z,86.98
2023-03-03T03:36:49.535Z,86.97
2023-03-03T03:39:17.719Z,86.99
2023-03-03T03:41:47.214Z,86.90
2023-03-03T03:44:14.051Z,86.97
2023-03-03T03:46:40.944Z,86.87
2023-03-03T03:49:07.992Z,87.10
2023-03-03T03:51:35.763Z,87.01
2023-03-03T03:54:03.492Z,86.81
2023-03-03T03:56:31.358Z,86.83
2023-03-03T03:59:01.134Z,86.87
2023-03-03T04:01:28.398Z,86.83
2023-03-03T04:03:56.649Z,87.01
2023-03-03T04:06:25.064Z,86.84
2023-03-03T04:08:52.701Z,86.94
2023-03-03T04:11:22.064Z,86.93
2023-03-03T04:13:49.409Z,86.80
2023-03-03T04:16:16.638Z,86.85
2023-03-03T04:18:46.208Z,86.79
2023-03-03T04:21:15.312Z,86.66
2023-03-03T04:23:43.746Z,86.84
2023-03-03T04:26:10.833Z,86.99
2023-03-03T04:28:38.448Z,86.98
2023-03-03T04:31:05.615Z,87.17
2023-03-03T04:33:33.357Z,87.17
2023-03-03T04:36:01.378Z,87.15
2023-03-03T04:38:28.252Z,87.43
2023-03-03T04:40:57.190Z,87.52
2023-03-03T04:43:26.157Z,87.57
2023-03-03T04:45:54.543Z,87.67
2023-03-03T04:48:22.812Z,87.52
2023-03-03T04:50:49.592Z,87.47
2023-03-03T04:53:16.401Z,87.50
2023-03-03T04:55:43.587Z,87.61
2023-03-03T04:58:13.582Z,87.55
2023-03-03T05:00:40.469Z,87.58
2023-03-03T05:03:10.773Z,87.64
2023-03-03T05:05:39.275Z,87.89
2023-03-03T05:08:06.523Z,87.83
2023-03-03T05:10:35.114Z,87.82
2023-03-03T05:13:02.224Z,87.74
2023-03-03T05:15:28.980Z,87.94
2023-03-03T05:17:56.591Z,87.69
2023-03-03T05:20:24.133Z,87.55
2023-03-03T05:22:53.836Z,87.92
2023-03-03T05:25:21.739Z,87.94
2023-03-03T05:27:48.661Z,87.76
2023-03-03T05:30:15.387Z,87.96
2023-03-03T05:32:42.077Z,87.95
2023-03-03T05:35:09.354Z,87.66
2023-03-03T05:37:36.137Z,87.78
2023-03-03T05:40:03.042Z,87.94
2023-03-03T05:42:30.477Z,87.86
2023-03-03T05:44:57.331Z,87.71
2023-03-03T05:47:24.147Z,87.71
2023-03-03T05:49:50.889Z,87.67
2023-03-03T05:52:17.762Z,87.92
2023-03-03T05:54:44.617Z,87.85
2023-03-03T05:57:11.989Z,87.84
2023-03-03T05:59:39.114Z,87.90
2023-03-03T06:02:06.093Z,87.85
2023-03-03T06:04:33.780Z,87.81
2023-03-03T06:07:00.600Z,88.00
2023-03-03T06:09:27.537Z,88.02
2023-03-03T06:11:54.469Z,87.89
2023-03-03T06:14:21.446Z,87.75
2023-03-03T06:16:48.498Z,87.88
2023-03-03T06:19:31.148Z,87.98
2023-03-03T06:22:00.599Z,87.90
2023-03-03T06:24:30.484Z,87.78
2023-03-03T06:26:59.456Z,88.23
2023-03-03T06:29:27.563Z,87.94
2023-03-03T06:31:54.617Z,88.23
2023-03-03T06:34:21.763Z,88.23
2023-03-03T06:36:48.986Z,88.02
2023-03-03T06:39:15.911Z,88.25
2023-03-03T06:41:42.809Z,88.17
2023-03-03T06:44:09.645Z,88.35
2023-03-03T06:46:36.487Z,88.35
2023-03-03T06:49:03.515Z,88.23
2023-03-03T06:51:35.205Z,88.20
2023-03-03T06:54:07.407Z,88.35
2023-03-03T06:56:36.651Z,88.41
2023-03-03T06:59:10.977Z,88.65
2023-03-03T07:01:38.334Z,88.62
2023-03-03T07:04:14.260Z,88.73
2023-03-03T07:06:41.168Z,88.82
2023-03-03T07:09:27.803Z,88.77
2023-03-03T07:12:01.432Z,88.63
2023-03-03T07:14:29.447Z,88.61
2023-03-03T07:17:05.353Z,88.75
2023-03-03T07:19:36.210Z,88.59
2023-03-03T07:22:14.942Z,88.59
2023-03-03T07:24:43.244Z,88.74
2023-03-03T07:27:19.318Z,88.91
2023-03-03T07:29:49.781Z,88.89
2023-03-03T07:32:26.153Z,88.88
2023-03-03T07:34:55.109Z,88.61
2023-03-03T07:37:39.488Z,88.96
2023-03-03T07:40:29.685Z,89.05
2023-03-03T07:42:56.581Z,88.84
2023-03-03T07:45:36.995Z,88.88
2023-03-03T07:48:24.987Z,88.83
2023-03-03T07:50:52.764Z,88.99
2023-03-03T07:53:26.113Z,88.75
2023-03-03T07:55:53.182Z,88.80
2023-03-03T07:58:30.900Z,88.77
2023-03-03T08:01:36.376Z,88.81
2023-03-03T08:04:50.080Z,88.74
2023-03-03T08:07:22.114Z,88.76
2023-03-03T08:09:51.270Z,88.79
2023-03-03T08:12:42.921Z,88.55
2023-03-03T08:15:26.381Z,88.59
2023-03-03T08:17:55.033Z,88.70
2023-03-03T08:20:47.097Z,88.44
2023-03-03T08:23:15.315Z,88.42
2023-03-03T08:25:43.136Z,88.25
2023-03-03T08:28:11.112Z,88.29
2023-03-03T08:30:39.912Z,88.50
2023-03-03T08:33:15.864Z,88.46
2023-03-03T08:35:45.581Z,88.41
2023-03-03T08:46:04.577Z,88.23
2023-03-03T09:01:41.624Z,88.13
2023-03-03T09:04:53.135Z,87.91
2023-03-03T09:08:03.762Z,87.95
2023-03-03T09:23:06.574Z,87.85
2023-03-03T09:32:44.511Z,87.80
2023-03-03T09:35:43.301Z,87.83
2023-03-03T09:38:24.045Z,87.71
2023-03-03T09:40:53.944Z,87.44
2023-03-03T09:44:00.079Z,87.47
2023-03-03T09:46:55.383Z,87.46
2023-03-03T09:49:30.980Z,87.46
2023-03-03T09:52:06.671Z,87.68
2023-03-03T09:55:11.681Z,87.27
2023-03-03T09:58:09.957Z,87.36
2023-03-03T10:01:00.193Z,87.50
2023-03-03T10:03:40.698Z,87.35
2023-03-03T10:06:33.121Z,87.29
2023-03-03T10:09:14.917Z,87.28
2023-03-03T10:11:57.933Z,87.37
2023-03-03T10:14:35.484Z,87.41
2023-03-03T10:17:44.996Z,87.42
2023-03-03T10:20:34.796Z,87.42
2023-03-03T10:23:21.255Z,87.51
2023-03-03T10:25:57.437Z,87.17
2023-03-03T10:28:43.045Z,87.51
2023-03-03T10:31:29.171Z,87.36
2023-03-03T10:34:17.580Z,87.30
2023-03-03T10:37:01.762Z,87.29
2023-03-03T10:39:37.516Z,87.27
2023-03-03T10:42:33.633Z,87.21
2023-03-03T10:45:15.569Z,86.95
2023-03-03T10:48:15.053Z,87.12
2023-03-03T10:50:51.113Z,86.85
2023-03-03T10:53:32.134Z,87.17
2023-03-03T10:56:22.486Z,87.19
2023-03-03T10:59:14.612Z,87.17
2023-03-03T11:01:51.920Z,86.96
2023-03-03T11:04:27.912Z,86.84
2023-03-03T11:07:04.408Z,86.73
2023-03-03T11:09:53.310Z,86.73
2023-03-03T11:12:29.266Z,86.57
2023-03-03T11:15:05.130Z,86.50
2023-03-03T11:17:42.479Z,86.52
2023-03-03T11:20:50.586Z,86.81
2023-03-03T11:23:46.245Z,86.94
2023-03-03T11:26:39.286Z,86.60
2023-03-03T11:29:27.173Z,86.61
2023-03-03T11:31:57.800Z,86.93
2023-03-03T11:34:36.922Z,86.58
2023-03-03T11:37:09.968Z,86.71
2023-03-03T11:39:37.155Z,86.72
2023-03-03T11:42:27.094Z,86.59
2023-03-03T11:45:15.597Z,86.78
2023-03-03T11:47:48.929Z,86.54
2023-03-03T11:50:23.507Z,86.63
2023-03-03T11:53:08.321Z,86.75
2023-03-03T11:55:42.457Z,86.54
2023-03-03T11:58:31.035Z,86.60
2023-03-03T12:01:21.137Z,86.50
2023-03-03T12:03:58.875Z,86.32
2023-03-03T12:07:18.431Z,86.35
2023-03-03T12:10:11.796Z,86.26
2023-03-03T12:12:44.635Z,86.66
2023-03-03T12:15:37.956Z,86.33
2023-03-03T12:18:25.691Z,86.38
2023-03-03T12:21:00.133Z,86.50
2023-03-03T12:23:37.507Z,86.39
2023-03-03T12:26:16.600Z,86.54
2023-03-03T12:28:54.139Z,86.26
2023-03-03T12:31:41.311Z,86.69
2023-03-03T12:34:14.401Z,86.63
2023-03-03T12:37:05.407Z,86.55
2023-03-03T12:39:54.178Z,86.51
2023-03-03T12:42:48.509Z,86.52
2023-03-03T12:45:53.653Z,86.43
2023-03-03T12:48:25.671Z,86.46
2023-03-03T12:51:26.639Z,86.17
2023-03-03T12:54:12.352Z,86.25
2023-03-03T12:56:44.207Z,86.54
2023-03-03T12:59:20.037Z,86.24
2023-03-03T13:02:16.242Z,86.21
2023-03-03T13:04:53.174Z,86.32
2023-03-03T13:07:27.349Z,86.30
2023-03-03T13:10:28.484Z,86.18
2023-03-03T13:12:55.197Z,86.40
2023-03-03T13:15:32.238Z,86.09
2023-03-03T13:18:07.721Z,86.39
2023-03-03T13:20:54.432Z,86.21
2023-03-03T13:23:32.304Z,86.14
2023-03-03T13:26:14.761Z,85.99
2023-03-03T13:28:54.598Z,86.24
2023-03-03T13:31:23.697Z,86.28
2023-03-03T13:33:58.817Z,85.94
2023-03-03T13:36:31.695Z,86.13
2023-03-03T13:39:05.936Z,86.26
2023-03-03T13:41:44.896Z,86.13
2023-03-03T13:44:17.331Z,86.14
2023-03-03T13:46:55.922Z,85.93
2023-03-03T13:49:41.836Z,86.30
2023-03-03T13:52:15.748Z,86.22
2023-03-03T13:54:45.540Z,86.19
2023-03-03T13:57:21.705Z,85.89
2023-03-03T14:00:09.926Z,86.12
2023-03-03T14:03:09.736Z,86.07
2023-03-03T14:05:48.854Z,86.09
2023-03-03T14:08:24.850Z,86.15
2023-03-03T14:11:03.928Z,86.03
2023-03-03T14:13:40.178Z,86.18
2023-03-03T14:16:28.956Z,86.01
2023-03-03T14:19:21.208Z,86.07
2023-03-03T14:21:50.001Z,85.96
2023-03-03T14:24:21.928Z,85.92
2023-03-03T14:26:52.872Z,86.16
2023-03-03T14:29:28.641Z,86.04
2023-03-03T14:32:03.426Z,85.89
2023-03-03T14:34:35.569Z,86.11
2023-03-03T14:37:23.171Z,85.83
2023-03-03T14:40:14.912Z,86.03
2023-03-03T14:42:54.895Z,86.10
2023-03-03T14:45:33.103Z,85.78
2023-03-03T14:48:10.484Z,86.03
2023-03-03T14:50:39.935Z,85.64
2023-03-03T14:53:18.280Z,85.84
2023-03-03T14:55:50.889Z,85.75
2023-03-03T14:58:40.848Z,85.62
2023-03-03T15:01:22.917Z,85.50
2023-03-03T15:04:16.089Z,85.38
2023-03-03T15:06:48.768Z,85.39
2023-03-03T15:09:40.342Z,85.17
2023-03-03T15:12:25.542Z,85.24
2023-03-03T15:15:11.275Z,85.33
2023-03-03T15:17:39.675Z,85.24
2023-03-03T15:20:32.567Z,85.21
2023-03-03T15:23:12.389Z,85.15
2023-03-03T15:25:53.962Z,85.55
2023-03-03T15:28:47.358Z,85.51
2023-03-03T15:31:55.823Z,85.34
2023-03-03T15:34:31.734Z,85.09
2023-03-03T15:37:28.311Z,85.27
2023-03-03T15:40:19.759Z,85.16
2023-03-03T15:42:49.495Z,85.18
2023-03-03T15:45:16.241Z,85.10
2023-03-03T15:48:09.367Z,85.03
2023-03-03T15:50:54.963Z,85.20
2023-03-03T15:53:59.294Z,84.86
2023-03-03T15:56:33.308Z,85.04
2023-03-03T15:59:03.114Z,84.92
2023-03-03T16:01:33.516Z,84.85
2023-03-03T16:04:15.652Z,85.15
2023-03-03T16:07:04.192Z,84.93
2023-03-03T16:09:56.543Z,84.93
2023-03-03T16:12:40.259Z,84.86
2023-03-03T16:15:25.731Z,84.88
2023-03-03T16:18:22.126Z,84.55
2023-03-03T16:21:17.904Z,84.99
2023-03-03T16:23:52.534Z,84.48
2023-03-03T16:26:41.079Z,84.71
2023-03-03T16:29:13.342Z,84.72
2023-03-03T16:31:49.060Z,84.65
2023-03-03T16:34:36.681Z,84.70
2023-03-03T16:37:18.810Z,84.68
2023-03-03T16:39:56.630Z,84.50
2023-03-03T16:42:31.377Z,84.38
2023-03-03T16:45:09.631Z,84.56
2023-03-03T16:47:39.332Z,84.46
2023-03-03T16:50:36.546Z,84.65
2023-03-03T16:53:24.530Z,84.46
2023-03-03T16:56:07.230Z,84.61
2023-03-03T16:59:02.211Z,84.71
2023-03-03T17:01:50.842Z,84.64
2023-03-03T17:04:33.354Z,84.72
2023-03-03T17:07:12.879Z,84.76
2023-03-03T17:10:05.917Z,85.03
2023-03-03T17:13:01.492Z,85.30
2023-03-03T17:15:34.671Z,85.23
2023-03-03T17:18:15.027Z,85.38
2023-03-03T17:20:52.262Z,85.46
2023-03-03T17:23:47.697Z,85.55
2023-03-03T17:27:09.028Z,85.22
2023-03-03T17:30:06.269Z,85.42
2023-03-03T17:32:42.022Z,85.31
2023-03-03T17:35:20.588Z,85.45
2023-03-03T17:37:57.796Z,85.62
2023-03-03T17:40:33.925Z,85.48
2023-03-03T17:43:07.347Z,85.72
2023-03-03T17:45:40.796Z,85.37
2023-03-03T17:48:19.587Z,85.55
2023-03-03T17:51:07.902Z,85.57
2023-03-03T17:53:47.918Z,85.53
2023-03-03T17:56:40.331Z,85.60
2023-03-03T17:59:25.455Z,85.67
2023-03-03T18:02:09.636Z,85.54
2023-03-03T18:04:55.144Z,85.63
2023-03-03T18:07:33.435Z,85.45
2023-03-03T18:18:16.171Z,85.20
2023-03-03T18:26:12.101Z,85.21
2023-03-03T18:28:23.928Z,85.45
2023-03-03T18:33:02.421Z,85.58
2023-03-03T18:35:46.053Z,85.52
2023-03-03T18:38:15.629Z,85.48
2023-03-03T18:40:54.695Z,85.59
2023-03-03T18:43:40.240Z,85.35
2023-03-03T18:46:32.588Z,85.32
2023-03-03T18:49:04.813Z,85.58
2023-03-03T18:51:34.736Z,85.41
2023-03-03T18:54:07.048Z,85.28
2023-03-03T18:56:47.153Z,85.37
2023-03-03T18:59:36.656Z,85.62
2023-03-03T19:02:12.649Z,85.39
2023-03-03T19:04:43.011Z,85.34
2023-03-03T19:07:15.666Z,85.47
2023-03-03T19:10:14.521Z,85.32
2023-03-03T19:12:59.336Z,85.77
2023-03-03T19:54:03.002Z,84.96
2023-03-03T19:58:25.978Z,85.03
2023-03-03T20:14:04.433Z,84.75
2023-03-03T20:17:14.459Z,84.58
2023-03-03T20:36:10.506Z,83.94
2023-03-03T20:47:40.580Z,82.73
2023-03-03T20:51:35.823Z,81.70
2023-03-03T21:04:03.216Z,81.13
2023-03-03T21:12:43.044Z,80.24
2023-03-03T21:19:04.159Z,80.03
2023-03-03T21:26:37.911Z,79.84
2023-03-03T21:30:30.631Z,79.71
2023-03-03T21:33:13.135Z,79.68
2023-03-03T21:36:51.923Z,79.62
2023-03-03T21:40:37.029Z,79.46
2023-03-03T21:44:14.704Z,79.65
2023-03-03T21:47:05.550Z,79.54
2023-03-03T21:53:50.800Z,79.38
2023-03-03T21:59:43.191Z,79.10
2023-03-03T22:02:55.451Z,79.32
2023-03-03T22:05:22.463Z,79.13
2023-03-03T22:07:49.565Z,79.28
2023-03-03T22:10:38.714Z,79.34
2023-03-03T22:13:05.528Z,79.32
2023-03-03T22:16:03.042Z,79.21
2023-03-03T22:18:54.557Z,79.03
2023-03-03T22:21:25.607Z,79.35
2023-03-03T22:23:52.488Z,79.33
2023-03-03T22:26:24.827Z,79.51
2023-03-03T22:29:16.600Z,79.46
2023-03-03T22:32:42.654Z,79.39
2023-03-03T22:35:19.059Z,79.43
2023-03-03T22:37:46.057Z,79.67
2023-03-03T22:40:21.412Z,79.57
2023-03-03T22:42:54.763Z,79.41
2023-03-03T22:45:24.822Z,79.64
2023-03-03T22:47:51.839Z,79.82
2023-03-03T22:50:19.570Z,80.12
2023-03-03T22:52:46.377Z,80.22
2023-03-03T22:55:13.596Z,80.25
2023-03-03T22:57:41.952Z,80.28
2023-03-03T23:00:13.338Z,80.01
2023-03-03T23:02:40.929Z,80.47
2023-03-03T23:05:35.609Z,80.45
2023-03-03T23:08:12.363Z,80.72
2023-03-03T23:10:53.801Z,80.59
2023-03-03T23:14:32.918Z,80.89
2023-03-03T23:17:54.653Z,80.74
2023-03-03T23:20:52.996Z,81.00
2023-03-03T23:34:35.396Z,81.63
2023-03-03T23:42:12.468Z,81.84
2023-03-03T23:45:21.170Z,81.78
2023-03-03T23:48:08.168Z,82.04
2023-03-03T23:50:43.482Z,82.22
2023-03-03T23:53:29.260Z,82.31
